This is the latest recevied weather packets stored in our database for station/object wb2ifs-13. If no packets are shown the sender has not sent any weather packets the latest 10 day(s).
| Time | Temp. | Humidity | Pressure | Rain* | Wind** | Luminosity | Snow |
|---|---|---|---|---|---|---|---|
| 1777911298 | 22.22° C | 37% | 1014.2 hPa | 0 mm | - | - | - |
| 1777910401 | 21.67° C | 37% | 1014.5 hPa | 0 mm | - | - | - |
| 1777909498 | 21.67° C | 37% | 1014.7 hPa | 0 mm | - | - | - |
| 1777908599 | 21.11° C | 38% | 1014.6 hPa | 0 mm | - | - | - |
| 1777907700 | 21.11° C | 38% | 1014.6 hPa | 0 mm | - | - | - |
| 1777906800 | 20.56° C | 39% | 1014.6 hPa | 0 mm | - | - | - |
| 1777905899 | 19.44° C | 42% | 1014.8 hPa | 0 mm | - | - | - |
| 1777904998 | 18.89° C | 42% | 1014.9 hPa | 0 mm | - | - | - |
| 1777904099 | 18.33° C | 47% | 1014.8 hPa | 0 mm | - | - | - |
| 1777903201 | 16.67° C | 49% | 1015.2 hPa | 0 mm | - | - | - |
| 1777902298 | 15.56° C | 52% | 1015.5 hPa | 0 mm | - | - | - |
| 1777901399 | 15° C | 54% | 1015.7 hPa | 0 mm | - | - | - |
| 1777900498 | 13.89° C | 57% | 1015.6 hPa | 0 mm | - | - | - |
| 1777899601 | 13.33° C | 59% | 1015.6 hPa | 0 mm | - | - | - |
| 1777898698 | 12.78° C | 59% | 1015.7 hPa | 0 mm | - | - | - |
| 1777897799 | 12.78° C | 62% | 1015.9 hPa | 0 mm | - | - | - |
| 1777896898 | 12.22° C | 62% | 1015.9 hPa | 0 mm | - | - | - |
| 1777896001 | 11.67° C | 64% | 1016 hPa | 0 mm | - | - | - |
| 1777895098 | 10.56° C | 66% | 1016.1 hPa | 0 mm | - | - | - |
| 1777894198 | 10° C | 70% | 1016.2 hPa | 0 mm | - | - | - |
| 1777893299 | 9.44° C | 71% | 1016.2 hPa | 0 mm | - | - | - |
| 1777892401 | 8.89° C | 72% | 1016.3 hPa | 0 mm | - | - | - |
| 1777891500 | 8.89° C | 71% | 1016.1 hPa | 0 mm | - | - | - |
| 1777890599 | 9.44° C | 69% | 1016.2 hPa | 0 mm | - | - | - |
| 1777889700 | 10° C | 67% | 1016.2 hPa | 0 mm | - | - | - |
* Rain latest hour (hover to see other rain measurements)
** Current wind speed in m/s (hover to see current wind gust speed)